Time;durP1;ratioP1;P1;durP2;ratioP2;P2;SDS_P1;SDS_P2;PMS_P1;PMS_P2;Temp;Humidity;BMP_temperature;BMP_pressure;BME280_temperature;BME280_humidity;BME280_pressure;Samples;Min_cycle;Max_cycle;Signal;HPM_P1;HPM_P2
2022/02/06 00:00:33;;;;;;;79.53;48.67;;;;;;;3.53;79.28;99219.25;5015149;28;20029;-66
2022/02/06 00:02:59;;;;;;;81.75;50.35;;;;;;;3.50;79.49;99219.41;5034251;28;20059;-66
2022/02/06 00:05:25;;;;;;;78.55;47.97;;;;;;;3.51;79.37;99209.97;5037446;28;20048;-66
2022/02/06 00:07:50;;;;;;;85.00;50.20;;;;;;;3.39;79.78;99214.03;4984018;28;20033;-66
2022/02/06 00:10:17;;;;;;;86.43;50.63;;;;;;;3.32;80.22;99221.25;5040483;28;20120;-66
2022/02/06 00:12:42;;;;;;;81.03;49.33;;;;;;;3.33;80.83;99232.38;5032323;28;20102;-66
2022/02/06 00:15:09;;;;;;;86.25;50.90;;;;;;;3.21;81.59;99228.72;5038362;28;20492;-64
2022/02/06 00:17:34;;;;;;;83.40;48.50;;;;;;;3.26;81.79;99221.59;5029596;28;20025;-66
2022/02/06 00:20:00;;;;;;;83.20;49.10;;;;;;;3.31;81.08;99235.03;5022546;28;20028;-64
2022/02/06 00:22:49;;;;;;;81.53;49.70;;;;;;;3.15;81.78;99226.50;5030171;28;20056;-67
2022/02/06 00:30:39;;;;;;;83.53;48.13;;;;;;;3.25;82.50;99210.50;5026811;28;20037;-66
2022/02/06 00:33:08;;;;;;;81.05;45.95;;;;;;;3.33;81.58;99212.66;5032831;28;20045;-66
2022/02/06 00:43:08;;;;;;;77.57;46.67;;;;;;;3.26;80.69;99209.56;5025687;28;20103;-66
2022/02/06 00:45:34;;;;;;;82.57;47.42;;;;;;;3.22;81.17;99202.13;5033404;28;20456;-66
2022/02/06 00:47:59;;;;;;;78.10;47.03;;;;;;;3.15;81.71;99201.63;4974820;28;20040;-66
2022/02/06 00:50:25;;;;;;;77.40;46.20;;;;;;;3.20;81.30;99197.06;5040316;28;20032;-66
2022/02/06 00:53:16;;;;;;;78.82;45.55;;;;;;;3.25;80.45;99199.41;5042512;28;20394;-66
2022/02/06 00:55:36;;;;;;;77.15;45.38;;;;;;;3.13;81.09;99203.44;5039660;28;20103;-66
2022/02/06 00:58:01;;;;;;;78.15;47.13;;;;;;;3.12;80.90;99198.38;5044048;28;20029;-66
2022/02/06 01:00:27;;;;;;;72.28;44.65;;;;;;;3.09;81.18;99191.69;5032239;28;20086;-67
2022/02/06 01:02:53;;;;;;;72.82;45.20;;;;;;;2.99;81.87;99196.47;5030950;28;20053;-66
2022/02/06 01:05:19;;;;;;;76.80;45.63;;;;;;;3.01;82.38;99191.25;5040280;28;20017;-65
2022/02/06 01:07:44;;;;;;;79.03;45.95;;;;;;;3.04;82.78;99193.66;4996238;28;20470;-65
2022/02/06 01:10:11;;;;;;;75.97;44.67;;;;;;;3.18;82.82;99198.91;5029203;28;20108;-67
2022/02/06 01:12:39;;;;;;;76.32;45.95;;;;;;;3.23;81.54;99203.75;5022033;28;20057;-65
2022/02/06 01:17:36;;;;;;;77.57;44.85;;;;;;;3.22;83.13;99212.41;5031626;28;20024;-66
2022/02/06 01:20:11;;;;;;;82.00;45.20;;;;;;;3.17;86.00;99216.97;5033988;28;20229;-67
2022/02/06 01:22:46;;;;;;;74.22;45.20;;;;;;;3.29;84.35;99223.19;5033039;28;20115;-65
2022/02/06 01:25:16;;;;;;;72.95;42.70;;;;;;;3.34;83.07;99224.59;5042073;28;20341;-66
2022/02/06 01:27:56;;;;;;;74.82;43.40;;;;;;;3.38;82.23;99225.25;5004029;28;20032;-67
2022/02/06 01:30:38;;;;;;;74.63;44.25;;;;;;;3.29;81.69;99218.88;5034869;28;20021;-68
2022/02/06 01:33:11;;;;;;;78.53;44.53;;;;;;;3.14;82.01;99210.25;5024806;28;20036;-64
2022/02/06 01:35:53;;;;;;;73.38;43.17;;;;;;;3.27;81.80;99220.69;5037101;28;20028;-66
2022/02/06 01:38:35;;;;;;;68.43;42.05;;;;;;;3.33;82.24;99212.66;5041302;28;20020;-67
2022/02/06 01:41:14;;;;;;;75.65;43.28;;;;;;;3.04;82.96;99167.97;5043459;28;20504;-67
2022/02/06 01:43:48;;;;;;;74.85;43.38;;;;;;;3.24;84.23;99206.25;5041640;28;20504;-64
2022/02/06 02:11:07;;;;;;;68.40;39.17;;;;;;;3.26;84.16;99216.47;5029618;28;20029;-64
2022/02/06 02:16:57;;;;;;;70.60;40.53;;;;;;;3.28;83.36;99212.06;5036089;28;20102;-66
2022/02/06 02:22:32;;;;;;;67.35;40.75;;;;;;;2.70;85.21;99141.53;5041356;28;20113;-66
2022/02/06 02:46:25;;;;;;;63.30;39.55;;;;;;;2.92;84.42;99168.63;5029645;28;20034;-65
2022/02/06 02:48:52;;;;;;;65.18;38.13;;;;;;;3.01;83.79;99166.41;5022137;28;20915;-66
2022/02/06 02:51:20;;;;;;;65.57;38.25;;;;;;;2.82;83.88;99130.59;5039931;28;20028;-64
2022/02/06 02:53:59;;;;;;;63.05;39.45;;;;;;;2.67;84.13;99108.31;5039590;28;20033;-66
2022/02/06 02:56:51;;;;;;;64.07;39.00;;;;;;;2.98;83.81;99155.47;5024695;28;20037;-67
2022/02/06 02:59:27;;;;;;;62.47;38.53;;;;;;;2.63;83.18;99099.97;5031875;28;20503;-66
2022/02/06 03:01:58;;;;;;;63.22;37.13;;;;;;;2.99;82.95;99150.22;5033891;28;20040;-66
2022/02/06 03:04:24;;;;;;;63.15;37.17;;;;;;;3.03;82.85;99153.47;5037692;28;20025;-66
2022/02/06 03:06:50;;;;;;;62.90;36.88;;;;;;;3.02;82.51;99150.06;5031590;28;20514;-67
2022/02/06 03:09:16;;;;;;;61.38;37.58;;;;;;;2.99;84.46;99147.66;5037357;28;20032;-66
2022/02/06 03:11:42;;;;;;;62.30;36.72;;;;;;;3.01;83.73;99158.72;5030533;28;20033;-66
2022/02/06 03:14:13;;;;;;;58.85;36.20;;;;;;;2.96;83.50;99162.44;5036517;28;20040;-66
2022/02/06 03:16:47;;;;;;;60.97;36.90;;;;;;;2.92;84.28;99156.63;5036197;28;20062;-66
2022/02/06 03:19:16;;;;;;;59.10;36.55;;;;;;;2.98;87.66;99161.44;5025309;28;20116;-66
2022/02/06 03:21:43;;;;;;;60.10;36.40;;;;;;;3.04;nan;99161.09;5031702;28;20179;-66
2022/02/06 03:26:45;;;;;;;61.08;36.85;;;;;;;2.85;85.40;99114.22;5026563;28;20095;-66
2022/02/06 03:29:11;;;;;;;56.85;35.63;;;;;;;3.15;86.48;99155.38;5034895;28;20044;-66
2022/02/06 03:31:37;;;;;;;61.85;35.78;;;;;;;3.12;87.49;99141.84;5036184;28;20037;-66
2022/02/06 03:34:03;;;;;;;58.83;36.83;;;;;;;3.20;86.10;99148.22;5034791;28;20030;-66
2022/02/06 03:36:29;;;;;;;57.00;34.70;;;;;;;3.20;85.52;99130.25;5032931;28;20086;-66
2022/02/06 03:38:54;;;;;;;54.80;33.42;;;;;;;3.17;85.82;99127.84;5035244;28;20511;-66
2022/02/06 03:41:21;;;;;;;56.75;35.05;;;;;;;3.27;85.62;99131.56;5034360;28;20108;-65
2022/02/06 03:46:32;;;;;;;55.38;34.70;;;;;;;3.29;84.59;99123.78;5032990;28;20110;-66
2022/02/06 03:51:31;;;;;;;50.92;31.98;;;;;;;3.21;83.60;99123.34;5034131;28;20170;-66
2022/02/06 03:53:56;;;;;;;50.20;32.83;;;;;;;3.12;83.25;99108.44;5040438;28;20033;-66
2022/02/06 03:56:23;;;;;;;53.53;33.88;;;;;;;3.11;83.71;99125.63;5034565;28;20044;-66
2022/02/06 03:58:48;;;;;;;54.97;34.45;;;;;;;3.07;84.06;99113.84;5025157;28;20536;-67
2022/02/06 04:01:14;;;;;;;54.63;33.05;;;;;;;2.92;83.92;99096.69;5039497;28;20060;-66
2022/02/06 04:03:39;;;;;;;51.78;32.60;;;;;;;2.98;84.05;99111.81;5038261;28;20742;-64
2022/02/06 04:06:05;;;;;;;52.03;31.50;;;;;;;2.93;83.68;99106.91;5021734;28;20067;-66
2022/02/06 04:08:33;;;;;;;50.33;32.13;;;;;;;2.99;83.74;99110.88;5034145;28;20048;-66
2022/02/06 04:10:59;;;;;;;51.67;32.95;;;;;;;2.96;84.41;99105.91;5020657;28;20547;-66
2022/02/06 04:13:26;;;;;;;51.55;31.77;;;;;;;2.94;83.44;99105.16;5036498;28;20072;-66
2022/02/06 04:15:59;;;;;;;52.72;32.33;;;;;;;2.95;83.58;99105.06;5035279;28;20432;-67
2022/02/06 04:21:09;;;;;;;51.58;31.45;;;;;;;2.89;83.98;99097.72;5036924;28;20036;-67
2022/02/06 04:23:35;;;;;;;51.40;31.70;;;;;;;2.79;83.97;99096.56;5035979;28;20033;-66
2022/02/06 04:26:00;;;;;;;50.35;31.88;;;;;;;2.41;85.51;99050.66;5034749;28;20037;-65
2022/02/06 04:28:26;;;;;;;53.45;32.42;;;;;;;2.52;87.29;99055.22;5028001;28;20093;-67
2022/02/06 04:30:51;;;;;;;48.05;31.25;;;;;;;2.75;87.18;99092.50;5039963;28;20109;-67
2022/02/06 04:33:19;;;;;;;49.50;30.30;;;;;;;2.75;87.91;99097.63;5042808;28;20036;-67
2022/02/06 04:35:46;;;;;;;53.25;31.73;;;;;;;2.82;87.60;99099.78;5040284;28;20025;-67
2022/02/06 04:43:47;;;;;;;46.78;28.17;;;;;;;2.92;86.63;99094.97;5035726;28;20106;-67
2022/02/06 05:22:06;;;;;;;46.08;27.00;;;;;;;2.72;85.22;99062.69;5038008;28;20039;-67
2022/02/06 05:32:34;;;;;;;46.70;26.80;;;;;;;2.75;85.12;99088.19;5034146;28;20126;-66
2022/02/06 05:35:00;;;;;;;42.92;26.50;;;;;;;2.85;84.88;99088.53;5038553;28;20064;-66
2022/02/06 05:37:26;;;;;;;45.15;25.85;;;;;;;2.81;84.49;99074.19;5033551;28;20175;-65
2022/02/06 05:39:55;;;;;;;47.67;27.27;;;;;;;2.95;83.91;99076.81;5030201;28;20735;-65
2022/02/06 05:42:21;;;;;;;44.93;27.63;;;;;;;2.93;84.18;99081.22;5032288;28;20037;-67
2022/02/06 05:44:55;;;;;;;48.70;26.88;;;;;;;2.98;83.00;99079.22;5037698;28;20029;-67
2022/02/06 05:47:21;;;;;;;46.65;27.10;;;;;;;2.97;83.07;99089.56;5039651;28;20033;-67
2022/02/06 05:49:47;;;;;;;41.50;26.35;;;;;;;2.58;83.59;99022.34;5037548;28;20037;-66
2022/02/06 05:52:12;;;;;;;41.38;25.65;;;;;;;2.81;83.07;99090.44;5023849;28;20226;-67
2022/02/06 05:54:38;;;;;;;46.05;26.30;;;;;;;2.85;83.24;99094.47;5021831;28;20025;-67
2022/02/06 05:57:04;;;;;;;42.50;25.67;;;;;;;2.54;82.74;99038.00;5034903;28;20491;-67
2022/02/06 05:59:31;;;;;;;41.90;24.65;;;;;;;2.61;82.68;99036.75;5036191;28;20053;-67
2022/02/06 06:01:57;;;;;;;40.65;24.90;;;;;;;2.87;83.10;99100.34;5022890;28;20091;-67
2022/02/06 06:04:22;;;;;;;42.38;25.25;;;;;;;2.60;83.70;99058.22;5033994;28;20033;-67
2022/02/06 06:06:48;;;;;;;40.80;24.42;;;;;;;2.91;82.77;99102.78;5029981;28;20033;-66
2022/02/06 06:09:13;;;;;;;39.65;24.65;;;;;;;2.95;83.10;99110.22;5023805;28;20032;-67
2022/02/06 06:11:39;;;;;;;37.88;23.35;;;;;;;2.92;82.10;99112.13;5036767;28;20107;-67
2022/02/06 06:14:04;;;;;;;38.92;22.63;;;;;;;2.74;82.13;99109.66;5032858;28;20132;-66
2022/02/06 06:16:33;;;;;;;36.67;22.77;;;;;;;2.72;82.22;99103.78;5032427;28;20032;-65
2022/02/06 06:18:58;;;;;;;38.10;24.38;;;;;;;2.85;82.12;99107.31;5039662;28;20487;-67
2022/02/06 06:21:26;;;;;;;41.53;25.35;;;;;;;2.84;82.13;99104.84;5038148;28;20039;-68
2022/02/06 06:23:53;;;;;;;40.10;25.23;;;;;;;2.90;81.57;99104.50;5036190;28;20101;-66
2022/02/06 06:26:21;;;;;;;37.65;23.25;;;;;;;2.82;81.75;99088.69;5022005;28;20087;-67
2022/02/06 06:28:46;;;;;;;39.92;24.73;;;;;;;2.91;81.76;99102.78;5035695;28;20037;-67
2022/02/06 06:31:12;;;;;;;41.95;26.48;;;;;;;2.92;81.69;99105.25;5035181;28;20123;-67
2022/02/06 06:33:37;;;;;;;43.92;26.58;;;;;;;2.85;81.44;99097.06;5030171;28;20576;-66
2022/02/06 06:36:04;;;;;;;43.47;25.83;;;;;;;2.87;81.74;99109.81;5033398;28;20090;-66
2022/02/06 06:38:32;;;;;;;39.42;26.60;;;;;;;2.53;82.14;99108.22;5039591;28;20064;-66
2022/02/06 06:40:57;;;;;;;43.05;25.08;;;;;;;2.15;83.00;99052.88;5039139;28;20032;-67
2022/02/06 06:43:23;;;;;;;41.38;25.63;;;;;;;2.58;82.33;99116.53;5032109;28;20657;-67
2022/02/06 06:45:48;;;;;;;43.53;25.80;;;;;;;2.66;81.45;99111.78;5038322;28;20091;-67
2022/02/06 06:48:14;;;;;;;41.70;25.52;;;;;;;2.61;81.39;99106.06;5039256;28;20588;-67
2022/02/06 06:50:39;;;;;;;41.60;26.08;;;;;;;2.54;82.11;99092.75;5038264;28;20029;-66
2022/02/06 06:53:06;;;;;;;42.78;26.13;;;;;;;2.60;81.66;99102.69;5038687;28;20535;-67
2022/02/06 06:55:35;;;;;;;44.17;25.85;;;;;;;2.58;81.85;99109.63;5032882;28;20064;-66
2022/02/06 06:58:10;;;;;;;39.47;24.80;;;;;;;2.56;81.72;99106.34;5034729;28;20028;-67
2022/02/06 07:00:44;;;;;;;44.75;26.40;;;;;;;2.61;81.39;99117.19;5033361;28;20056;-66
2022/02/06 07:03:09;;;;;;;40.85;24.73;;;;;;;2.48;82.00;99114.44;5040509;28;20103;-66
2022/02/06 07:05:35;;;;;;;41.78;25.50;;;;;;;2.43;82.26;99106.16;5018408;28;20148;-67
2022/02/06 07:08:00;;;;;;;46.05;26.42;;;;;;;2.37;82.10;99101.31;5037690;28;20032;-67
2022/02/06 07:10:26;;;;;;;40.05;25.55;;;;;;;2.26;82.10;99091.66;5036073;28;20033;-66
2022/02/06 07:12:51;;;;;;;40.40;26.05;;;;;;;2.35;81.83;99098.00;5031156;28;20033;-66
2022/02/06 07:15:17;;;;;;;50.25;30.55;;;;;;;2.13;81.67;99085.47;5028394;28;20120;-66
2022/02/06 07:17:43;;;;;;;44.38;28.75;;;;;;;2.10;81.91;99053.13;5010389;28;20033;-67
2022/02/06 07:20:09;;;;;;;45.63;28.73;;;;;;;2.42;81.67;99096.78;5028520;28;20029;-67
2022/02/06 07:22:36;;;;;;;48.92;29.48;;;;;;;2.45;81.70;99090.69;5030615;28;20064;-67
2022/02/06 07:25:03;;;;;;;48.67;28.92;;;;;;;2.46;81.78;99098.31;5018007;28;20025;-67
2022/02/06 07:27:32;;;;;;;48.22;28.60;;;;;;;2.17;82.54;99053.63;5024227;28;20471;-67
2022/02/06 07:30:03;;;;;;;41.95;26.80;;;;;;;2.53;82.68;99097.97;4993314;28;20037;-67
2022/02/06 07:32:30;;;;;;;43.40;26.52;;;;;;;2.53;83.53;99096.22;5031427;28;20029;-67
2022/02/06 07:34:55;;;;;;;41.08;24.52;;;;;;;2.69;84.24;99091.91;5033459;28;20052;-67
2022/02/06 07:37:21;;;;;;;39.97;24.20;;;;;;;2.43;83.46;99047.13;5012895;28;20837;-67
2022/02/06 07:39:46;;;;;;;40.75;23.60;;;;;;;2.46;83.67;99040.97;5027514;28;20041;-66
2022/02/06 07:42:12;;;;;;;39.33;23.55;;;;;;;2.87;83.09;99086.69;5031793;28;20033;-67
2022/02/06 07:44:38;;;;;;;37.65;23.90;;;;;;;2.85;82.89;99079.06;5020194;28;20115;-67
2022/02/06 07:47:19;;;;;;;43.28;25.65;;;;;;;2.93;82.83;99082.97;5037101;28;20036;-67
2022/02/06 07:49:48;;;;;;;40.75;24.13;;;;;;;3.08;82.46;99084.66;4991212;28;20030;-67
2022/02/06 07:52:15;;;;;;;41.70;25.05;;;;;;;3.11;82.29;99087.06;5022791;28;20087;-67
2022/02/06 07:54:40;;;;;;;38.25;24.13;;;;;;;2.80;83.06;99034.81;5021677;28;20436;-68
2022/02/06 07:57:06;;;;;;;37.83;22.80;;;;;;;2.82;83.21;99045.03;5023901;28;20051;-67
2022/02/06 07:59:33;;;;;;;36.10;22.77;;;;;;;3.11;81.38;99087.06;5029659;28;20040;-67
2022/02/06 08:01:59;;;;;;;35.88;21.13;;;;;;;3.20;80.90;99094.25;5041507;28;20059;-67
2022/02/06 08:04:24;;;;;;;33.75;21.17;;;;;;;3.06;80.64;99084.75;5035867;28;20310;-67
2022/02/06 08:06:49;;;;;;;34.63;20.35;;;;;;;2.94;80.83;99069.19;5040931;28;20037;-67
2022/02/06 08:12:45;;;;;;;34.75;20.27;;;;;;;3.07;81.22;99077.88;5018300;28;20063;-67
2022/02/06 08:15:10;;;;;;;31.88;20.13;;;;;;;3.04;81.50;99085.75;5034820;28;20021;-67
2022/02/06 08:17:38;;;;;;;36.22;20.52;;;;;;;3.05;81.98;99087.44;5023662;28;20029;-67
2022/02/06 08:20:10;;;;;;;33.03;20.02;;;;;;;2.98;82.05;99075.84;5038853;28;20020;-67
2022/02/06 08:22:36;;;;;;;33.33;19.88;;;;;;;2.97;81.83;99076.72;5031834;28;20788;-67
2022/02/06 08:25:03;;;;;;;34.80;20.60;;;;;;;2.98;82.03;99074.09;5019754;28;20033;-67
2022/02/06 08:27:28;;;;;;;33.58;19.65;;;;;;;3.06;82.37;99076.22;5031727;28;20053;-67
2022/02/06 08:29:54;;;;;;;31.35;19.77;;;;;;;3.02;82.67;99075.56;5000682;28;20498;-68
2022/02/06 08:32:22;;;;;;;31.40;19.13;;;;;;;3.08;82.22;99066.69;5028858;28;20061;-67
2022/02/06 08:34:48;;;;;;;30.60;19.13;;;;;;;3.18;81.50;99061.88;5030937;28;20116;-67
2022/02/06 08:37:14;;;;;;;32.03;19.42;;;;;;;3.20;81.38;99078.84;5023697;28;20029;-68
2022/02/06 08:39:41;;;;;;;33.30;20.30;;;;;;;3.23;80.46;99078.69;5035131;28;20025;-67
2022/02/06 08:42:09;;;;;;;35.40;20.33;;;;;;;3.10;81.18;99071.72;5033692;28;20776;-67
2022/02/06 08:44:39;;;;;;;32.17;19.25;;;;;;;3.11;80.61;99063.94;5028220;28;20041;-67
2022/02/06 08:47:06;;;;;;;31.17;19.15;;;;;;;2.80;80.12;99023.75;5036770;28;20117;-67
2022/02/06 08:49:31;;;;;;;31.77;19.80;;;;;;;3.11;80.70;99074.22;5033320;28;20057;-67
2022/02/06 08:51:57;;;;;;;29.63;19.15;;;;;;;3.08;80.42;99064.09;4995848;28;20117;-66
2022/02/06 08:54:27;;;;;;;29.55;18.35;;;;;;;3.14;79.96;99079.19;5016764;28;20079;-67
2022/02/06 08:56:52;;;;;;;32.53;19.98;;;;;;;2.99;80.63;99069.75;5037626;28;20044;-67
2022/02/06 08:59:18;;;;;;;31.70;19.30;;;;;;;2.83;80.29;99037.25;5038056;28;20021;-66
2022/02/06 09:01:43;;;;;;;31.02;19.60;;;;;;;3.09;80.56;99076.06;5031453;28;20359;-66
2022/02/06 09:04:09;;;;;;;32.10;18.75;;;;;;;3.05;80.54;99077.97;5030675;28;20511;-65
2022/02/06 09:06:37;;;;;;;29.10;18.42;;;;;;;2.76;80.27;99017.94;5037244;28;20036;-66
2022/02/06 09:09:04;;;;;;;31.48;18.15;;;;;;;3.12;80.11;99064.75;5020613;28;20029;-64
2022/02/06 09:11:30;;;;;;;27.98;17.52;;;;;;;3.09;79.38;99070.91;5032896;28;20639;-66
2022/02/06 09:13:56;;;;;;;30.25;17.10;;;;;;;2.75;78.62;99002.63;5017490;28;20126;-66
2022/02/06 09:16:26;;;;;;;28.15;17.52;;;;;;;3.20;78.45;99060.03;5036177;28;20755;-66
2022/02/06 09:18:52;;;;;;;25.52;15.77;;;;;;;3.41;77.38;99057.97;5036138;28;20037;-66
2022/02/06 09:21:20;;;;;;;27.42;16.55;;;;;;;3.45;76.21;99062.03;5034611;28;20096;-67
2022/02/06 09:23:46;;;;;;;23.85;15.77;;;;;;;3.44;76.49;99060.38;5021267;28;20099;-67
2022/02/06 09:26:12;;;;;;;27.85;14.98;;;;;;;3.45;75.85;99055.16;4971218;28;20802;-66
2022/02/06 09:28:37;;;;;;;26.90;15.60;;;;;;;3.30;75.63;99042.34;5031831;28;20040;-66
2022/02/06 09:31:03;;;;;;;25.77;15.05;;;;;;;3.03;76.16;98989.03;5029713;28;20037;-64
2022/02/06 09:35:54;;;;;;;27.75;16.27;;;;;;;3.48;76.12;99048.97;5027916;28;20059;-66
2022/02/06 09:38:19;;;;;;;26.17;14.85;;;;;;;3.51;76.68;99053.13;5028953;28;20755;-66
2022/02/06 09:40:45;;;;;;;26.27;15.35;;;;;;;3.22;76.97;99011.94;5025874;28;20476;-67
2022/02/06 09:43:13;;;;;;;25.30;15.20;;;;;;;3.17;75.98;99006.22;5024863;28;20803;-66
2022/02/06 09:45:40;;;;;;;26.98;15.85;;;;;;;3.12;76.73;99006.50;5014337;28;20109;-66
2022/02/06 09:48:08;;;;;;;26.77;16.13;;;;;;;3.29;76.32;99025.28;4955941;28;20585;-66
2022/02/06 09:50:33;;;;;;;29.20;16.25;;;;;;;3.31;76.61;99016.56;5030808;28;20060;-67
2022/02/06 09:52:59;;;;;;;22.20;15.13;;;;;;;3.57;77.08;99048.44;5038672;28;20555;-66
2022/02/06 09:55:24;;;;;;;26.05;15.25;;;;;;;3.59;75.58;99056.06;5031042;28;20021;-67
2022/02/06 09:57:53;;;;;;;24.67;14.88;;;;;;;3.45;75.01;99028.63;5031373;28;20045;-67
2022/02/06 10:00:21;;;;;;;24.40;14.43;;;;;;;3.67;75.06;99041.03;5027961;28;20039;-68
2022/02/06 10:02:50;;;;;;;26.48;15.20;;;;;;;3.77;74.78;99031.03;5028462;28;20112;-67
2022/02/06 10:05:17;;;;;;;23.38;14.20;;;;;;;3.83;73.38;99041.78;5012158;28;20115;-67
2022/02/06 10:07:45;;;;;;;24.58;13.75;;;;;;;3.94;69.61;99037.72;4987939;28;20036;-67
2022/02/06 10:10:13;;;;;;;21.13;12.38;;;;;;;3.96;70.60;99038.44;5021337;28;20036;-67
2022/02/06 10:12:41;;;;;;;17.98;10.00;;;;;;;3.76;67.38;99034.50;5038460;28;20053;-66
2022/02/06 10:15:10;;;;;;;18.00;10.10;;;;;;;3.74;66.85;98998.59;5028163;28;20021;-67
2022/02/06 10:17:36;;;;;;;17.27;10.17;;;;;;;4.08;64.50;99034.31;5034026;28;20063;-67
2022/02/06 10:20:05;;;;;;;17.77;10.10;;;;;;;4.13;62.69;99030.56;5024130;28;20534;-67
2022/02/06 10:22:42;;;;;;;18.45;10.13;;;;;;;4.09;64.02;99023.09;5007136;28;20613;-67
2022/02/06 10:25:09;;;;;;;20.77;11.05;;;;;;;4.12;65.11;99025.50;5028278;28;20041;-67
2022/02/06 10:30:44;;;;;;;16.38;9.85;;;;;;;4.37;63.52;99017.91;5010334;28;20164;-67
2022/02/06 10:33:18;;;;;;;19.52;9.65;;;;;;;4.41;63.48;99008.25;5030677;28;20029;-66
2022/02/06 10:35:49;;;;;;;18.98;9.95;;;;;;;4.53;62.24;99004.91;5027509;28;20037;-67
2022/02/06 10:38:20;;;;;;;19.05;9.80;;;;;;;4.60;62.14;99002.78;5023758;28;20646;-67
2022/02/06 10:41:12;;;;;;;20.30;11.48;;;;;;;4.75;61.45;98988.09;5037041;28;20065;-67
2022/02/06 10:43:57;;;;;;;18.38;10.93;;;;;;;4.92;62.82;98968.97;5036811;28;20096;-67
2022/02/06 10:46:24;;;;;;;18.98;11.35;;;;;;;4.95;62.80;98974.75;5029588;28;20578;-67
2022/02/06 10:48:51;;;;;;;19.27;11.68;;;;;;;5.06;65.17;98961.16;5032049;28;20100;-67
2022/02/06 10:51:36;;;;;;;20.77;11.75;;;;;;;5.38;66.13;98971.91;5029253;28;20660;-67
2022/02/06 10:54:02;;;;;;;20.65;11.45;;;;;;;5.17;65.92;98935.47;5033297;28;20031;-67
2022/02/06 10:56:27;;;;;;;21.27;12.07;;;;;;;5.36;65.54;98957.44;5037356;28;20132;-66
2022/02/06 10:59:01;;;;;;;19.98;12.65;;;;;;;5.54;65.99;98957.97;5032991;28;20104;-67
2022/02/06 11:01:29;;;;;;;20.50;12.45;;;;;;;5.48;64.41;98937.75;5034199;28;20139;-67
2022/02/06 11:04:29;;;;;;;22.15;12.65;;;;;;;5.71;63.91;98949.91;5026899;28;20036;-67
2022/02/06 11:07:19;;;;;;;19.15;11.35;;;;;;;5.72;65.72;98948.97;5005722;28;20032;-67
2022/02/06 11:09:45;;;;;;;17.73;11.02;;;;;;;5.80;64.69;98945.03;5037363;28;20028;-67
2022/02/06 11:12:17;;;;;;;20.80;12.35;;;;;;;5.62;65.22;98903.25;5028796;28;20025;-67
2022/02/06 11:14:51;;;;;;;19.73;12.90;;;;;;;5.74;64.88;98905.81;5022783;28;20519;-67
2022/02/06 11:17:26;;;;;;;25.55;13.30;;;;;;;5.92;62.62;98929.53;5033317;28;20650;-67
2022/02/06 11:19:58;;;;;;;23.55;13.38;;;;;;;6.02;62.80;98919.41;5018548;28;20033;-66
2022/02/06 11:22:24;;;;;;;25.75;14.60;;;;;;;5.85;63.13;98860.38;5035848;28;20029;-66
2022/02/06 11:24:50;;;;;;;23.08;13.98;;;;;;;6.13;60.97;98897.97;5016175;28;20797;-67
2022/02/06 11:27:15;;;;;;;23.70;14.50;;;;;;;6.24;61.44;98892.91;5022814;28;20719;-66
2022/02/06 11:29:41;;;;;;;23.35;14.75;;;;;;;6.33;61.98;98894.81;5035650;28;20388;-67
2022/02/06 11:32:06;;;;;;;26.95;15.50;;;;;;;6.42;60.96;98892.50;5039080;28;20060;-66
2022/02/06 11:34:32;;;;;;;26.23;15.00;;;;;;;6.45;62.19;98879.34;5036457;28;20056;-67
2022/02/06 11:45:56;;;;;;;22.13;13.57;;;;;;;6.32;62.98;98823.44;5037507;28;20049;-67
2022/02/06 11:48:25;;;;;;;22.70;13.63;;;;;;;6.55;62.36;98841.56;5035533;28;20048;-67
2022/02/06 11:50:51;;;;;;;22.38;13.32;;;;;;;6.60;62.32;98836.06;5025588;28;20029;-67
2022/02/06 11:53:37;;;;;;;23.98;14.18;;;;;;;6.46;61.08;98788.84;5039735;28;20051;-67
2022/02/06 11:56:20;;;;;;;21.95;12.55;;;;;;;6.86;56.38;98811.69;4982997;28;20547;-66
2022/02/06 11:58:48;;;;;;;22.40;12.77;;;;;;;6.86;53.31;98760.00;5028741;28;20132;-67
2022/02/06 12:01:13;;;;;;;21.83;12.98;;;;;;;7.49;51.72;98793.06;5040337;28;20032;-66
2022/02/06 12:03:59;;;;;;;20.17;12.85;;;;;;;7.74;51.60;98779.03;5036943;28;20028;-67
2022/02/06 12:06:31;;;;;;;21.48;13.70;;;;;;;7.84;51.96;98763.56;5037510;28;20028;-67
2022/02/06 12:08:59;;;;;;;24.75;14.93;;;;;;;8.05;51.14;98766.22;5031030;28;20515;-67
2022/02/06 12:11:29;;;;;;;25.83;15.75;;;;;;;8.12;51.28;98769.09;5033493;28;20018;-66
2022/02/06 12:14:10;;;;;;;26.50;15.18;;;;;;;8.20;51.38;98785.66;5007850;28;20074;-65
2022/02/06 12:16:48;;;;;;;24.63;15.07;;;;;;;8.19;50.87;98796.16;5035596;28;20112;-65
2022/02/06 12:19:34;;;;;;;25.70;15.15;;;;;;;8.16;50.71;98784.28;5020543;28;20027;-65
2022/02/06 12:22:28;;;;;;;25.95;16.45;;;;;;;7.95;51.73;98742.81;5032661;28;20033;-66
2022/02/06 12:25:22;;;;;;;25.40;17.08;;;;;;;8.17;52.91;98783.31;5014520;28;20575;-66
2022/02/06 12:28:17;;;;;;;28.05;17.33;;;;;;;8.14;53.24;98781.00;5028927;28;20029;-67
2022/02/06 12:30:44;;;;;;;30.35;18.75;;;;;;;8.15;53.62;98792.16;5022347;28;20659;-66
2022/02/06 12:33:24;;;;;;;26.60;17.90;;;;;;;8.17;53.89;98796.25;5031775;28;20021;-66
2022/02/06 12:38:34;;;;;;;27.70;17.35;;;;;;;8.19;53.45;98765.06;5028938;28;20068;-65
2022/02/06 12:41:24;;;;;;;29.48;18.27;;;;;;;7.96;53.34;98736.69;5023282;28;20024;-66
2022/02/06 12:43:55;;;;;;;27.60;17.70;;;;;;;8.17;52.81;98761.78;5029475;28;20119;-65
2022/02/06 12:46:22;;;;;;;28.02;18.98;;;;;;;8.14;53.29;98743.88;5022242;28;20033;-66
2022/02/06 12:48:48;;;;;;;28.90;18.38;;;;;;;8.16;53.84;98727.28;5028090;28;20033;-66
2022/02/06 12:51:14;;;;;;;30.70;18.95;;;;;;;8.24;53.40;98737.00;5025718;28;20028;-66
2022/02/06 12:53:39;;;;;;;28.45;18.48;;;;;;;8.29;52.98;98727.09;4976974;28;20293;-66
2022/02/06 12:56:05;;;;;;;30.95;18.45;;;;;;;8.18;52.12;98703.84;5031323;28;20492;-66
2022/02/06 12:58:30;;;;;;;30.33;17.23;;;;;;;8.39;52.39;98727.97;5029429;28;20071;-67
2022/02/06 13:00:56;;;;;;;31.23;19.02;;;;;;;8.47;52.57;98724.78;5012013;28;20033;-65
2022/02/06 13:03:24;;;;;;;27.85;18.00;;;;;;;8.24;52.27;98683.44;5024723;28;20290;-66
2022/02/06 13:06:04;;;;;;;30.48;19.42;;;;;;;8.59;53.04;98717.72;5025407;28;20033;-66
2022/02/06 13:08:31;;;;;;;32.30;21.10;;;;;;;8.55;53.76;98735.31;5027047;28;20072;-65
2022/02/06 13:11:02;;;;;;;34.30;21.85;;;;;;;8.56;53.07;98729.19;4997848;28;20800;-66
2022/02/06 13:13:42;;;;;;;34.22;22.50;;;;;;;8.49;54.31;98712.50;4995824;28;20025;-66
2022/02/06 13:19:12;;;;;;;36.25;23.48;;;;;;;8.52;55.56;98698.47;5023359;28;20050;-65
2022/02/06 13:24:19;;;;;;;40.25;26.48;;;;;;;8.52;57.06;98683.72;5037010;28;20060;-65
2022/02/06 13:32:09;;;;;;;51.53;31.65;;;;;;;8.60;58.88;98676.13;5025443;28;20081;-66
2022/02/06 13:37:28;;;;;;;53.33;33.35;;;;;;;8.62;59.56;98670.81;5026435;28;20083;-65
2022/02/06 13:39:57;;;;;;;50.03;32.13;;;;;;;8.62;59.52;98663.06;5029560;28;20087;-62
2022/02/06 13:42:30;;;;;;;48.57;32.30;;;;;;;8.58;59.68;98657.31;5028277;28;20408;-68
2022/02/06 13:45:13;;;;;;;47.78;32.40;;;;;;;8.57;59.01;98660.84;5017163;28;20334;-66
2022/02/06 13:47:39;;;;;;;51.45;32.58;;;;;;;8.16;59.06;98592.59;5036846;28;20032;-66
2022/02/06 13:50:08;;;;;;;47.28;31.10;;;;;;;8.61;59.29;98661.41;5026666;28;20470;-66
2022/02/06 13:52:39;;;;;;;47.33;31.17;;;;;;;8.62;59.03;98663.88;5031094;28;20060;-66
2022/02/06 13:55:05;;;;;;;48.13;32.03;;;;;;;8.65;59.11;98660.19;5027034;28;20029;-68
2022/02/06 13:57:35;;;;;;;46.25;30.52;;;;;;;8.34;59.17;98616.13;5028182;28;20476;-67
2022/02/06 14:00:09;;;;;;;45.17;28.75;;;;;;;8.35;59.30;98616.94;5028645;28;20087;-66
2022/02/06 14:02:34;;;;;;;48.08;31.55;;;;;;;8.55;59.38;98641.19;5029126;28;20104;-67
2022/02/06 14:05:11;;;;;;;43.88;28.58;;;;;;;8.62;59.09;98647.50;5027218;28;20108;-67
2022/02/06 14:07:36;;;;;;;43.10;27.65;;;;;;;8.32;58.86;98602.47;5023691;28;20075;-67
2022/02/06 14:10:12;;;;;;;40.75;27.38;;;;;;;8.61;58.91;98644.06;5030865;28;20268;-66
2022/02/06 14:12:54;;;;;;;41.95;27.83;;;;;;;8.64;59.16;98649.00;5002287;28;20499;-66
2022/02/06 14:15:24;;;;;;;44.92;28.55;;;;;;;8.62;59.27;98656.09;5018601;28;20108;-67